Time;durP1;ratioP1;P1;durP2;ratioP2;P2;SDS_P1;SDS_P2;PMS_P1;PMS_P2;Temp;Humidity;BMP_temperature;BMP_pressure;BME280_temperature;BME280_humidity;BME280_pressure;Samples;Min_cycle;Max_cycle;Signal;HPM_P1;HPM_P2
2022/08/01 00:01:35;;;;;;;2.08;1.50;;;20.80;99.90;;;;;;5055441;28;20381;-75
2022/08/01 00:04:00;;;;;;;2.22;1.42;;;20.80;99.90;;;;;;5054047;28;20412;-75
2022/08/01 00:06:26;;;;;;;1.10;0.90;;;20.80;99.90;;;;;;5052295;28;20452;-75
2022/08/01 00:08:51;;;;;;;1.30;0.90;;;20.70;99.90;;;;;;5051523;28;20492;-76
2022/08/01 00:11:17;;;;;;;2.63;0.83;;;20.70;99.90;;;;;;5051271;28;20402;-76
2022/08/01 00:13:43;;;;;;;0.80;0.80;;;20.80;99.90;;;;;;5051756;28;20393;-74
2022/08/01 00:16:08;;;;;;;1.10;0.88;;;20.70;99.90;;;;;;5051547;28;20771;-75
2022/08/01 00:18:35;;;;;;;3.00;1.20;;;20.70;99.90;;;;;;5052336;28;20446;-75
2022/08/01 00:21:04;;;;;;;1.00;0.90;;;20.70;99.90;;;;;;5051851;28;20400;-74
2022/08/01 00:23:30;;;;;;;1.10;0.80;;;20.70;99.90;;;;;;5051400;28;20401;-75
2022/08/01 00:25:55;;;;;;;1.50;1.00;;;20.60;99.90;;;;;;5049936;28;20393;-75
2022/08/01 00:28:21;;;;;;;1.00;0.70;;;20.60;99.90;;;;;;5052328;28;20381;-73
2022/08/01 00:30:46;;;;;;;1.38;0.88;;;20.70;99.90;;;;;;5051723;28;20407;-75
2022/08/01 00:33:12;;;;;;;1.30;0.80;;;20.60;99.90;;;;;;5051295;28;20817;-75
2022/08/01 00:35:38;;;;;;;1.50;0.80;;;20.60;99.90;;;;;;5051233;28;20373;-75
2022/08/01 00:38:03;;;;;;;1.70;1.50;;;20.60;99.90;;;;;;5051128;28;20801;-74
2022/08/01 00:40:29;;;;;;;1.20;0.83;;;20.60;99.90;;;;;;5051543;28;20715;-73
2022/08/01 00:42:54;;;;;;;3.30;1.50;;;20.60;99.90;;;;;;5050896;28;20385;-74
2022/08/01 00:45:20;;;;;;;2.00;1.30;;;20.60;99.90;;;;;;5051666;28;20377;-75
2022/08/01 00:47:45;;;;;;;3.30;0.90;;;20.60;99.90;;;;;;5049953;28;20404;-74
2022/08/01 00:50:11;;;;;;;1.80;0.90;;;20.60;99.90;;;;;;5051486;28;20409;-75
2022/08/01 00:52:39;;;;;;;1.30;1.20;;;20.60;99.90;;;;;;5051204;28;20377;-73
2022/08/01 00:55:05;;;;;;;4.90;1.95;;;20.60;99.90;;;;;;5051756;28;20423;-74
2022/08/01 00:57:30;;;;;;;9.00;1.08;;;20.60;99.90;;;;;;5051345;28;20390;-73
2022/08/01 00:59:56;;;;;;;1.20;0.90;;;20.50;99.90;;;;;;5051271;28;20400;-75
2022/08/01 01:02:21;;;;;;;1.00;0.90;;;20.50;99.90;;;;;;5050975;28;20394;-74
2022/08/01 01:04:47;;;;;;;0.80;0.60;;;20.60;99.90;;;;;;5049524;28;20390;-74
2022/08/01 01:07:20;;;;;;;1.85;1.30;;;20.50;99.90;;;;;;5050803;28;20965;-75
2022/08/01 01:09:57;;;;;;;1.95;0.90;;;20.40;99.90;;;;;;5050728;28;20401;-74
2022/08/01 01:12:42;;;;;;;1.38;0.93;;;20.50;99.90;;;;;;5050411;28;20384;-73
2022/08/01 01:15:19;;;;;;;1.60;0.90;;;20.50;99.90;;;;;;5051053;28;20457;-74
2022/08/01 01:17:52;;;;;;;1.37;0.97;;;20.40;99.90;;;;;;5050736;28;20373;-75
2022/08/01 01:20:20;;;;;;;1.30;1.10;;;20.40;99.90;;;;;;5050600;28;20392;-74
2022/08/01 01:22:52;;;;;;;1.43;0.97;;;20.40;99.90;;;;;;5050155;28;20736;-74
2022/08/01 01:25:24;;;;;;;1.30;0.80;;;20.40;99.90;;;;;;5050600;28;20381;-75
2022/08/01 01:28:35;;;;;;;1.30;0.80;;;20.30;99.90;;;;;;5050433;28;20481;-75
2022/08/01 01:31:03;;;;;;;1.40;0.70;;;20.40;99.90;;;;;;5050227;28;20411;-76
2022/08/01 01:33:31;;;;;;;2.00;0.90;;;20.40;99.90;;;;;;5052354;28;20537;-75
2022/08/01 01:36:04;;;;;;;4.80;1.25;;;20.30;99.90;;;;;;5054214;28;20385;-75
2022/08/01 01:38:36;;;;;;;1.10;0.70;;;20.30;99.90;;;;;;5054050;28;20826;-75
2022/08/01 01:41:03;;;;;;;1.10;1.00;;;20.30;99.90;;;;;;5054113;28;20396;-75
2022/08/01 01:43:31;;;;;;;1.90;1.50;;;20.30;99.90;;;;;;5054154;28;20389;-75
2022/08/01 01:45:57;;;;;;;1.35;1.05;;;20.30;99.90;;;;;;5054240;28;20385;-75
2022/08/01 01:48:24;;;;;;;1.10;1.00;;;20.30;99.90;;;;;;5054788;28;20385;-75
2022/08/01 01:50:52;;;;;;;1.10;0.90;;;20.30;99.90;;;;;;5054763;28;20396;-74
2022/08/01 01:53:19;;;;;;;1.17;0.70;;;20.30;99.90;;;;;;5053305;28;20396;-74
2022/08/01 01:55:48;;;;;;;1.00;0.90;;;20.30;99.90;;;;;;5053893;28;20393;-76
2022/08/01 01:58:14;;;;;;;1.52;0.60;;;20.30;99.90;;;;;;5054020;28;20433;-74
2022/08/01 02:00:44;;;;;;;1.00;0.82;;;20.30;99.90;;;;;;5054129;28;20796;-75
2022/08/01 02:03:12;;;;;;;1.23;1.13;;;20.30;99.90;;;;;;5054231;28;20389;-73
2022/08/01 02:05:38;;;;;;;1.00;0.80;;;20.30;99.90;;;;;;5053996;28;20396;-73
2022/08/01 02:08:05;;;;;;;9.98;1.10;;;20.30;99.90;;;;;;5053905;28;20393;-74
2022/08/01 02:10:33;;;;;;;1.05;0.90;;;20.40;99.90;;;;;;5053758;28;20404;-74
2022/08/01 02:13:02;;;;;;;4.95;1.27;;;20.50;99.90;;;;;;5053699;28;20397;-74
2022/08/01 02:15:30;;;;;;;4.40;1.00;;;20.50;99.90;;;;;;5053279;28;20472;-74
2022/08/01 02:17:56;;;;;;;2.00;0.98;;;20.50;99.90;;;;;;5053139;28;20468;-73
2022/08/01 02:20:23;;;;;;;1.02;0.90;;;20.50;99.90;;;;;;5053436;28;20870;-74
2022/08/01 02:22:53;;;;;;;1.50;1.00;;;20.50;99.90;;;;;;5052994;28;20389;-74
2022/08/01 02:25:40;;;;;;;4.43;1.17;;;20.40;99.90;;;;;;5052882;28;20389;-73
2022/08/01 02:28:10;;;;;;;3.40;1.20;;;20.40;99.90;;;;;;5052996;28;20385;-72
2022/08/01 02:30:38;;;;;;;4.78;1.40;;;20.40;99.90;;;;;;5052652;28;20393;-73
2022/08/01 02:33:17;;;;;;;1.40;1.00;;;20.30;99.90;;;;;;5052836;28;20435;-73
2022/08/01 02:35:46;;;;;;;1.50;0.90;;;20.40;99.90;;;;;;5054264;28;20378;-73
2022/08/01 02:38:13;;;;;;;2.97;1.80;;;20.40;99.90;;;;;;5054382;28;20774;-73
2022/08/01 02:40:43;;;;;;;4.80;1.60;;;20.40;99.90;;;;;;5054031;28;20393;-74
2022/08/01 02:43:10;;;;;;;7.40;1.52;;;20.40;99.90;;;;;;5053388;28;20753;-74
2022/08/01 02:45:40;;;;;;;1.70;1.25;;;20.40;99.90;;;;;;5053823;28;20385;-74
2022/08/01 02:48:12;;;;;;;1.87;1.23;;;20.30;99.90;;;;;;5053761;28;20386;-74
2022/08/01 02:50:41;;;;;;;5.05;1.05;;;20.20;99.90;;;;;;5052909;28;20401;-74
2022/08/01 02:53:10;;;;;;;2.10;1.10;;;20.30;99.90;;;;;;5053022;28;20420;-74
2022/08/01 02:55:38;;;;;;;15.63;1.73;;;20.40;99.90;;;;;;5053368;28;20389;-74
2022/08/01 02:58:06;;;;;;;6.53;1.10;;;20.30;99.90;;;;;;5052658;28;20446;-74
2022/08/01 03:00:32;;;;;;;1.57;1.10;;;20.20;99.90;;;;;;5052726;28;20979;-73
2022/08/01 03:03:01;;;;;;;1.50;1.40;;;20.20;99.90;;;;;;5052319;28;20435;-73
2022/08/01 03:05:28;;;;;;;2.97;1.55;;;20.20;99.90;;;;;;5052197;28;20472;-74
2022/08/01 03:07:55;;;;;;;2.78;1.48;;;20.10;99.90;;;;;;5052248;28;20388;-73
2022/08/01 03:10:22;;;;;;;1.20;1.00;;;20.10;99.90;;;;;;5052292;28;20401;-75
2022/08/01 03:12:49;;;;;;;2.50;1.42;;;20.10;99.90;;;;;;5064592;28;20369;-74
2022/08/01 03:15:16;;;;;;;2.08;1.38;;;20.10;99.90;;;;;;5073282;28;20377;-74
2022/08/01 03:17:45;;;;;;;1.85;1.27;;;20.10;99.90;;;;;;5073154;28;20385;-74
2022/08/01 03:20:13;;;;;;;2.20;1.20;;;20.10;99.90;;;;;;5070547;28;20755;-74
2022/08/01 03:22:42;;;;;;;2.23;1.20;;;20.00;99.90;;;;;;5069860;28;20385;-75
2022/08/01 03:25:08;;;;;;;4.75;1.92;;;20.10;99.90;;;;;;5073367;28;20378;-73
2022/08/01 03:27:36;;;;;;;2.20;2.00;;;20.00;99.90;;;;;;5064118;28;20397;-74
2022/08/01 03:30:04;;;;;;;1.25;1.15;;;20.10;99.90;;;;;;5061852;28;20393;-74
2022/08/01 03:32:30;;;;;;;11.90;1.60;;;20.10;99.90;;;;;;5057596;28;20517;-73
2022/08/01 03:34:57;;;;;;;2.70;1.20;;;20.10;99.90;;;;;;5062952;28;20377;-74
2022/08/01 03:37:38;;;;;;;1.40;1.20;;;20.00;99.90;;;;;;5064761;28;20408;-74
2022/08/01 03:40:35;;;;;;;1.27;0.82;;;20.00;99.90;;;;;;5069227;28;20389;-75
2022/08/01 03:43:11;;;;;;;1.95;1.60;;;20.00;99.90;;;;;;5070070;28;20465;-73
2022/08/01 03:45:43;;;;;;;1.88;1.02;;;20.00;99.90;;;;;;5066222;28;20378;-74
2022/08/01 03:48:13;;;;;;;1.70;1.60;;;20.00;99.90;;;;;;5054398;28;20386;-75
2022/08/01 03:50:46;;;;;;;1.58;1.30;;;20.00;99.90;;;;;;5055103;28;20772;-75
2022/08/01 03:53:13;;;;;;;3.25;1.17;;;20.00;99.90;;;;;;5052893;28;20894;-74
2022/08/01 03:55:41;;;;;;;2.28;1.60;;;20.00;99.90;;;;;;5050337;28;20420;-75
2022/08/01 03:58:08;;;;;;;6.10;2.47;;;20.00;99.90;;;;;;5052406;28;20393;-75
2022/08/01 04:00:38;;;;;;;10.90;2.33;;;20.00;99.90;;;;;;5052103;28;20399;-74
2022/08/01 04:03:04;;;;;;;2.72;1.88;;;20.00;99.90;;;;;;5051076;28;20385;-75
2022/08/01 04:05:31;;;;;;;1.70;1.30;;;20.00;99.90;;;;;;5053167;28;20467;-74
2022/08/01 04:07:58;;;;;;;1.50;0.90;;;20.00;99.90;;;;;;5054439;28;20467;-75
2022/08/01 04:10:24;;;;;;;2.50;2.20;;;20.00;99.90;;;;;;5052629;28;20767;-74
2022/08/01 04:12:49;;;;;;;1.50;1.00;;;19.90;99.90;;;;;;5051994;28;20380;-74
2022/08/01 04:15:15;;;;;;;2.35;2.15;;;19.90;99.90;;;;;;5052469;28;20389;-75
2022/08/01 04:17:41;;;;;;;2.30;1.42;;;20.00;99.90;;;;;;5050727;28;20390;-75
2022/08/01 04:20:07;;;;;;;5.87;2.47;;;19.90;99.90;;;;;;5052048;28;20773;-74
2022/08/01 04:22:35;;;;;;;1.15;1.02;;;19.90;99.90;;;;;;5051562;28;20882;-75
2022/08/01 04:25:04;;;;;;;2.67;1.38;;;19.90;99.90;;;;;;5055741;28;20381;-74
2022/08/01 04:27:34;;;;;;;2.85;1.38;;;19.80;99.90;;;;;;5050571;28;20389;-74
2022/08/01 04:30:00;;;;;;;4.47;2.25;;;19.80;99.90;;;;;;5049127;28;20436;-74
2022/08/01 04:32:30;;;;;;;6.18;2.08;;;19.80;99.90;;;;;;5050700;28;20381;-74
2022/08/01 04:34:59;;;;;;;3.30;1.70;;;19.80;99.90;;;;;;5050970;28;20378;-75
2022/08/01 04:37:27;;;;;;;2.80;2.30;;;19.90;99.90;;;;;;5051908;28;20386;-74
2022/08/01 04:39:54;;;;;;;5.80;1.42;;;19.90;99.90;;;;;;5049363;28;20393;-73
2022/08/01 04:42:21;;;;;;;1.30;1.20;;;19.90;99.90;;;;;;5050366;28;20393;-73
2022/08/01 04:44:46;;;;;;;2.47;1.20;;;19.90;99.90;;;;;;5050733;28;20420;-74
2022/08/01 04:47:13;;;;;;;2.30;1.90;;;20.10;99.90;;;;;;5050646;28;20930;-74
2022/08/01 04:49:39;;;;;;;2.40;1.75;;;20.20;99.90;;;;;;5050425;28;20389;-74
2022/08/01 04:52:06;;;;;;;2.67;2.20;;;20.20;99.90;;;;;;5050412;28;20436;-74
2022/08/01 04:54:36;;;;;;;4.60;2.38;;;20.20;99.90;;;;;;5050681;28;20469;-74
2022/08/01 04:57:03;;;;;;;1.27;1.17;;;20.10;99.90;;;;;;5050430;28;20404;-73
2022/08/01 04:59:39;;;;;;;3.10;2.03;;;20.00;99.90;;;;;;5050380;28;20466;-73
2022/08/01 05:02:05;;;;;;;9.70;1.87;;;20.00;99.90;;;;;;5050312;28;20805;-73
2022/08/01 05:04:31;;;;;;;2.85;1.42;;;20.00;99.90;;;;;;5050290;28;20460;-74
2022/08/01 05:06:56;;;;;;;3.30;2.10;;;19.90;99.90;;;;;;5048590;28;20468;-74
2022/08/01 05:09:22;;;;;;;8.20;2.40;;;19.90;99.90;;;;;;5054284;28;20862;-73
2022/08/01 05:11:47;;;;;;;5.03;1.65;;;19.90;99.90;;;;;;5054373;28;20890;-74
2022/08/01 05:14:13;;;;;;;6.50;1.70;;;19.80;99.90;;;;;;5054586;28;20460;-74
2022/08/01 05:16:38;;;;;;;2.70;2.20;;;19.90;99.90;;;;;;5054111;28;20377;-75
2022/08/01 05:19:04;;;;;;;3.20;1.97;;;19.90;99.90;;;;;;5055716;28;20869;-74
2022/08/01 05:21:30;;;;;;;4.00;2.63;;;19.80;99.90;;;;;;5054011;28;20470;-74
2022/08/01 05:23:55;;;;;;;6.28;1.98;;;20.10;99.90;;;;;;5053882;28;20405;-75
2022/08/01 05:26:21;;;;;;;3.70;1.97;;;20.20;99.90;;;;;;5052700;28;20801;-75
2022/08/01 05:28:46;;;;;;;4.60;1.60;;;20.00;99.90;;;;;;5053841;28;20853;-74
2022/08/01 05:31:12;;;;;;;1.35;1.15;;;20.10;99.90;;;;;;5053757;28;20401;-74
2022/08/01 05:33:37;;;;;;;3.60;1.83;;;20.10;99.90;;;;;;5053917;28;20435;-74
2022/08/01 05:36:03;;;;;;;2.00;1.20;;;20.30;99.90;;;;;;5052701;28;20389;-75
2022/08/01 05:38:29;;;;;;;3.60;1.48;;;20.20;99.90;;;;;;5053933;28;20711;-74
2022/08/01 05:40:54;;;;;;;6.30;1.90;;;20.00;99.90;;;;;;5052232;28;20794;-74
2022/08/01 05:43:20;;;;;;;3.33;1.65;;;20.00;99.90;;;;;;5053525;28;20679;-74
2022/08/01 05:45:45;;;;;;;5.93;1.70;;;20.10;99.90;;;;;;5053315;28;20753;-74
2022/08/01 05:48:11;;;;;;;2.80;1.50;;;20.10;99.90;;;;;;5053626;28;20742;-74
2022/08/01 05:50:37;;;;;;;2.58;1.95;;;20.10;99.90;;;;;;5053540;28;20401;-74
2022/08/01 05:53:02;;;;;;;2.13;1.90;;;20.10;99.90;;;;;;5053731;28;20385;-74
2022/08/01 05:55:28;;;;;;;4.53;2.00;;;20.20;99.90;;;;;;5053618;28;20377;-73
2022/08/01 05:57:54;;;;;;;3.05;1.60;;;20.40;99.90;;;;;;5053150;28;20390;-74
2022/08/01 06:00:19;;;;;;;3.40;1.87;;;20.70;99.90;;;;;;5053502;28;20401;-74
2022/08/01 06:02:45;;;;;;;2.50;2.00;;;20.80;99.90;;;;;;5053455;28;20981;-74
2022/08/01 06:05:10;;;;;;;3.25;2.22;;;20.80;99.90;;;;;;5053405;28;21091;-72
2022/08/01 06:07:38;;;;;;;4.80;1.90;;;20.70;99.90;;;;;;5051929;28;20941;-76
2022/08/01 06:10:04;;;;;;;5.93;1.70;;;20.80;99.90;;;;;;5053337;28;20412;-74
2022/08/01 06:12:33;;;;;;;1.60;1.50;;;20.70;99.90;;;;;;5053219;28;20866;-74
2022/08/01 06:14:58;;;;;;;3.67;2.78;;;20.70;99.90;;;;;;5053367;28;20396;-74
2022/08/01 06:17:24;;;;;;;5.23;2.17;;;20.60;99.90;;;;;;5052556;28;20445;-75
2022/08/01 06:19:49;;;;;;;4.95;2.60;;;20.50;99.90;;;;;;5055863;28;20385;-75
2022/08/01 06:22:15;;;;;;;5.40;3.23;;;20.40;99.90;;;;;;5053103;28;20389;-74
2022/08/01 06:24:40;;;;;;;2.80;1.73;;;20.40;99.90;;;;;;5053345;28;20385;-75
2022/08/01 06:27:06;;;;;;;3.70;2.00;;;20.30;99.90;;;;;;5053012;28;20832;-74
2022/08/01 06:29:32;;;;;;;4.70;2.20;;;20.30;99.90;;;;;;5052643;28;20754;-74
2022/08/01 06:31:58;;;;;;;2.47;1.97;;;20.30;99.90;;;;;;5052683;28;20742;-74
2022/08/01 06:34:23;;;;;;;3.72;2.03;;;20.30;99.90;;;;;;5052537;28;20468;-74
2022/08/01 06:36:49;;;;;;;7.00;2.00;;;20.50;99.90;;;;;;5052386;28;20889;-73
2022/08/01 06:39:15;;;;;;;9.20;1.92;;;20.50;99.90;;;;;;5052790;28;20392;-75
2022/08/01 06:41:45;;;;;;;1.50;0.90;;;20.60;92.80;;;;;;5052786;28;20382;-75
2022/08/01 06:44:11;;;;;;;4.60;1.40;;;20.60;96.30;;;;;;5052634;28;20845;-74
2022/08/01 06:46:37;;;;;;;4.47;1.87;;;20.80;92.20;;;;;;5054078;28;20399;-74
2022/08/01 06:49:03;;;;;;;2.53;1.00;;;20.90;95.20;;;;;;5058951;28;20739;-74
2022/08/01 06:51:28;;;;;;;1.70;1.25;;;21.00;81.40;;;;;;5057631;28;20401;-74
2022/08/01 06:53:54;;;;;;;1.50;1.40;;;21.10;85.50;;;;;;5056984;28;20386;-75
2022/08/01 06:56:20;;;;;;;2.90;1.43;;;21.10;78.30;;;;;;5056093;28;20404;-75
2022/08/01 06:58:45;;;;;;;10.80;1.60;;;21.20;79.00;;;;;;5054537;28;20390;-75
2022/08/01 07:01:11;;;;;;;3.20;1.92;;;21.40;79.20;;;;;;5054213;28;20393;-74
2022/08/01 07:03:37;;;;;;;2.80;1.50;;;21.60;79.50;;;;;;5050659;28;20412;-74
2022/08/01 07:06:03;;;;;;;1.00;0.73;;;21.60;70.50;;;;;;5052235;28;20386;-73
2022/08/01 07:08:28;;;;;;;1.70;0.90;;;21.50;72.40;;;;;;5052374;28;20397;-75
2022/08/01 07:10:55;;;;;;;4.20;1.70;;;21.40;68.60;;;;;;5040626;28;20451;-74
2022/08/01 07:13:24;;;;;;;1.92;1.73;;;21.30;71.60;;;;;;5052022;28;20415;-77
2022/08/01 07:15:50;;;;;;;1.10;0.80;;;21.20;72.70;;;;;;5053904;28;20447;-77
2022/08/01 07:18:16;;;;;;;1.60;1.38;;;21.30;69.00;;;;;;5039778;28;20410;-77
2022/08/01 07:20:41;;;;;;;0.90;0.68;;;21.20;71.10;;;;;;5039801;28;20391;-78
2022/08/01 07:23:07;;;;;;;1.40;0.97;;;21.20;69.10;;;;;;5044506;28;20400;-77
2022/08/01 07:25:32;;;;;;;1.00;0.90;;;21.20;68.40;;;;;;5038490;28;20387;-77
2022/08/01 07:27:58;;;;;;;5.00;0.90;;;21.50;70.10;;;;;;5042108;28;20400;-78
2022/08/01 07:30:24;;;;;;;2.10;1.17;;;21.90;67.40;;;;;;5056641;28;20401;-79
2022/08/01 07:32:49;;;;;;;0.90;0.80;;;22.30;73.90;;;;;;5042659;28;20391;-77
2022/08/01 07:35:15;;;;;;;4.20;1.00;;;22.60;60.50;;;;;;5036988;28;20451;-77
2022/08/01 07:37:40;;;;;;;1.77;1.00;;;22.70;55.80;;;;;;5036810;28;20472;-79
2022/08/01 07:40:07;;;;;;;2.60;0.80;;;22.80;52.70;;;;;;5054063;28;20393;-77
2022/08/01 07:42:32;;;;;;;2.20;0.90;;;22.80;50.70;;;;;;5052396;28;20397;-78
2022/08/01 07:44:58;;;;;;;0.80;0.63;;;22.60;51.10;;;;;;5045114;28;20410;-78
2022/08/01 07:47:25;;;;;;;2.50;0.80;;;22.30;53.60;;;;;;5044099;28;20485;-78
2022/08/01 07:49:51;;;;;;;1.58;0.82;;;22.20;53.00;;;;;;5039354;28;20405;-77
2022/08/01 07:52:16;;;;;;;1.75;0.88;;;22.10;55.10;;;;;;5049587;28;20389;-78
2022/08/01 07:54:42;;;;;;;0.90;0.70;;;22.40;56.90;;;;;;5054707;28;20460;-78
2022/08/01 07:57:07;;;;;;;1.40;0.70;;;22.50;53.50;;;;;;5063379;22;20438;-78
2022/08/01 07:59:34;;;;;;;1.40;1.00;;;22.60;55.10;;;;;;5023974;28;20393;-78
2022/08/01 08:01:59;;;;;;;1.20;0.90;;;22.70;50.20;;;;;;5014970;28;20454;-78
2022/08/01 08:04:26;;;;;;;1.10;0.80;;;23.10;51.50;;;;;;5027265;28;20673;-78
2022/08/01 08:06:53;;;;;;;1.40;0.90;;;23.40;45.50;;;;;;5030238;28;20708;-78
2022/08/01 08:09:19;;;;;;;1.27;1.00;;;23.30;45.20;;;;;;5032033;28;20745;-78
2022/08/01 08:11:45;;;;;;;3.60;1.23;;;23.10;46.30;;;;;;5027949;28;20444;-78
2022/08/01 08:14:11;;;;;;;1.00;0.80;;;23.30;46.00;;;;;;5039216;28;20407;-77
2022/08/01 08:16:37;;;;;;;1.70;0.90;;;23.60;45.10;;;;;;5049477;28;20456;-77
2022/08/01 08:19:04;;;;;;;3.70;0.90;;;23.70;45.00;;;;;;5046927;28;20382;-76
2022/08/01 08:21:30;;;;;;;0.95;0.70;;;23.60;43.60;;;;;;5026046;28;20586;-76
2022/08/01 08:26:54;;;;;;;1.17;0.68;;;23.50;43.20;;;;;;5031367;28;20411;-77
2022/08/01 08:29:21;;;;;;;1.00;0.90;;;23.70;42.10;;;;;;5036346;28;20439;-77
2022/08/01 08:31:47;;;;;;;0.80;0.60;;;24.10;39.30;;;;;;5051461;28;20409;-77
2022/08/01 08:34:13;;;;;;;1.30;1.00;;;24.40;37.20;;;;;;5041957;28;20755;-77
2022/08/01 08:36:38;;;;;;;0.80;0.63;;;24.50;35.80;;;;;;5015761;28;20395;-76
2022/08/01 08:39:04;;;;;;;1.10;0.60;;;23.90;36.60;;;;;;5029339;28;20395;-76
2022/08/01 08:41:31;;;;;;;0.90;0.50;;;23.40;38.50;;;;;;5032286;28;20382;-78
2022/08/01 08:44:00;;;;;;;1.50;1.15;;;23.30;39.90;;;;;;5031487;28;20398;-76
2022/08/01 08:46:27;;;;;;;1.10;0.60;;;23.30;43.00;;;;;;5029946;28;20391;-77
2022/08/01 08:48:53;;;;;;;1.20;0.70;;;23.50;40.70;;;;;;5031781;28;20387;-77
2022/08/01 08:51:19;;;;;;;3.30;1.00;;;23.80;40.60;;;;;;5037384;28;20415;-76
2022/08/01 08:53:46;;;;;;;3.70;0.90;;;23.80;39.50;;;;;;5039572;28;20391;-78
2022/08/01 08:56:13;;;;;;;1.30;0.80;;;23.80;38.50;;;;;;5034597;28;20442;-76
2022/08/01 08:58:43;;;;;;;1.30;1.10;;;23.90;40.00;;;;;;5032160;28;20399;-76
2022/08/01 09:01:10;;;;;;;2.10;1.30;;;24.00;40.10;;;;;;5028109;28;20394;-76
2022/08/01 09:03:36;;;;;;;1.17;0.77;;;24.00;39.90;;;;;;5030284;28;20417;-78
2022/08/01 09:06:02;;;;;;;4.60;1.60;;;24.10;39.50;;;;;;5029847;28;20881;-77
2022/08/01 09:08:29;;;;;;;1.00;0.75;;;24.30;38.60;;;;;;5029490;28;20402;-77
2022/08/01 09:10:55;;;;;;;0.80;0.63;;;24.50;37.90;;;;;;5029116;28;20410;-77
2022/08/01 09:13:21;;;;;;;1.30;0.88;;;24.60;36.40;;;;;;5029201;28;20399;-76
2022/08/01 09:15:54;;;;;;;1.30;1.00;;;24.90;36.30;;;;;;5029151;28;20748;-76
2022/08/01 09:18:33;;;;;;;0.85;0.60;;;25.00;34.40;;;;;;5029292;28;20379;-76
2022/08/01 09:21:09;;;;;;;1.00;0.60;;;25.10;34.60;;;;;;5013405;28;20408;-77
2022/08/01 09:23:46;;;;;;;0.80;0.50;;;25.10;36.20;;;;;;5038155;28;20536;-78
2022/08/01 09:26:13;;;;;;;0.80;0.50;;;25.00;34.00;;;;;;5044322;28;20390;-78
2022/08/01 09:28:40;;;;;;;0.80;0.50;;;24.80;34.90;;;;;;5029155;28;20433;-77
2022/08/01 09:31:14;;;;;;;2.60;0.60;;;24.70;35.00;;;;;;5028665;28;20414;-77
2022/08/01 09:33:52;;;;;;;2.10;1.00;;;25.00;35.30;;;;;;5028563;28;20840;-78
2022/08/01 09:36:19;;;;;;;1.30;0.70;;;25.40;32.60;;;;;;5009982;28;20400;-77
2022/08/01 09:38:45;;;;;;;1.20;0.60;;;25.60;31.20;;;;;;5022745;28;20397;-76
2022/08/01 09:41:11;;;;;;;1.10;0.60;;;25.80;30.20;;;;;;5049687;28;20401;-77
2022/08/01 09:43:37;;;;;;;0.90;0.80;;;25.90;28.10;;;;;;5052754;28;20378;-76
2022/08/01 09:46:11;;;;;;;1.20;0.90;;;25.60;27.70;;;;;;5050580;28;20484;-76
2022/08/01 09:48:39;;;;;;;1.80;0.70;;;24.60;32.20;;;;;;5050245;28;20394;-77
2022/08/01 09:51:06;;;;;;;1.20;1.10;;;24.40;34.70;;;;;;5040459;28;20834;-76
2022/08/01 09:53:46;;;;;;;1.60;1.10;;;24.20;34.70;;;;;;5030478;28;20391;-77
2022/08/01 09:56:12;;;;;;;1.40;0.90;;;24.10;36.10;;;;;;5033389;28;20392;-77
2022/08/01 09:58:58;;;;;;;2.80;0.80;;;24.10;35.30;;;;;;5034305;28;20402;-77
2022/08/01 10:01:24;;;;;;;1.02;0.70;;;23.90;36.50;;;;;;5033225;28;20423;-75
2022/08/01 10:04:27;;;;;;;1.10;1.00;;;24.00;36.10;;;;;;5033872;28;20391;-76
2022/08/01 10:07:07;;;;;;;7.38;4.70;;;24.00;35.20;;;;;;4991074;28;20929;-76
2022/08/01 10:09:35;;;;;;;8.05;5.10;;;24.10;33.90;;;;;;5029314;28;20501;-76
2022/08/01 10:12:01;;;;;;;7.80;4.80;;;24.10;34.30;;;;;;5025686;28;20688;-77
2022/08/01 10:14:28;;;;;;;9.70;4.53;;;24.10;34.50;;;;;;5024618;28;20430;-76
2022/08/01 10:16:56;;;;;;;3.88;3.47;;;24.60;30.80;;;;;;5024585;28;20439;-76
2022/08/01 10:19:23;;;;;;;8.88;4.20;;;24.60;30.10;;;;;;5026148;28;20448;-76
2022/08/01 10:21:52;;;;;;;6.83;4.23;;;24.90;30.40;;;;;;5034325;28;20407;-76
2022/08/01 10:24:22;;;;;;;3.80;3.50;;;25.30;28.50;;;;;;5042145;28;20511;-76
2022/08/01 10:26:51;;;;;;;4.30;3.63;;;25.60;27.40;;;;;;5042552;28;20937;-77
2022/08/01 10:29:20;;;;;;;6.63;4.00;;;25.50;30.00;;;;;;5028401;28;20963;-76
2022/08/01 10:31:47;;;;;;;6.47;4.68;;;25.60;28.50;;;;;;5022574;28;20905;-76
2022/08/01 10:34:15;;;;;;;4.47;4.00;;;25.40;29.90;;;;;;5015890;28;20407;-77
2022/08/01 10:36:42;;;;;;;6.03;4.70;;;25.50;28.20;;;;;;5011729;28;20439;-77
2022/08/01 10:39:11;;;;;;;7.40;4.70;;;25.40;28.00;;;;;;5021721;28;20463;-76
2022/08/01 10:41:38;;;;;;;5.38;3.90;;;25.20;28.80;;;;;;5027572;28;20409;-77
2022/08/01 10:44:07;;;;;;;5.88;3.45;;;25.20;28.80;;;;;;5011553;28;20968;-77
2022/08/01 10:46:37;;;;;;;3.85;3.17;;;25.50;27.10;;;;;;5023321;28;20397;-77
2022/08/01 10:49:07;;;;;;;4.70;2.80;;;26.30;24.10;;;;;;5019232;28;20399;-77
2022/08/01 10:51:38;;;;;;;3.60;3.30;;;26.70;22.00;;;;;;5031452;28;20407;-77
2022/08/01 10:54:07;;;;;;;3.13;2.63;;;26.80;20.70;;;;;;5031408;28;20702;-77
2022/08/01 10:56:50;;;;;;;4.90;2.60;;;26.90;20.80;;;;;;5023497;28;20408;-77
2022/08/01 10:59:27;;;;;;;2.83;2.30;;;26.40;21.40;;;;;;5018082;28;20403;-76
2022/08/01 11:02:00;;;;;;;2.30;2.10;;;26.20;21.50;;;;;;5031241;28;20419;-77
2022/08/01 11:04:42;;;;;;;2.92;2.10;;;26.00;21.80;;;;;;5032443;28;20466;-78
2022/08/01 11:07:17;;;;;;;2.75;2.50;;;25.60;22.80;;;;;;5019357;28;20412;-77
2022/08/01 11:09:49;;;;;;;2.28;2.00;;;25.40;21.40;;;;;;5014185;28;20735;-77
2022/08/01 11:12:17;;;;;;;2.85;2.30;;;25.00;22.40;;;;;;5030843;28;20395;-77
2022/08/01 11:14:58;;;;;;;4.80;2.27;;;24.70;22.90;;;;;;5038883;28;20471;-76
2022/08/01 11:17:34;;;;;;;2.65;2.17;;;24.70;23.30;;;;;;5026089;28;20395;-76
2022/08/01 11:20:09;;;;;;;3.63;2.20;;;24.90;24.80;;;;;;5030545;28;20399;-76
2022/08/01 11:22:59;;;;;;;3.30;2.83;;;25.30;23.90;;;;;;5021162;28;20391;-77
2022/08/01 11:25:48;;;;;;;2.70;2.50;;;25.20;23.40;;;;;;5031310;28;20412;-77
2022/08/01 11:28:14;;;;;;;2.60;2.40;;;25.40;23.50;;;;;;5020313;28;20462;-77
2022/08/01 11:30:40;;;;;;;2.67;2.47;;;25.60;21.50;;;;;;5022126;28;20440;-75
2022/08/01 11:33:06;;;;;;;3.92;2.20;;;25.70;20.40;;;;;;5016980;28;20798;-77
2022/08/01 11:35:32;;;;;;;2.33;2.13;;;25.50;21.10;;;;;;5014243;28;20479;-77
2022/08/01 11:38:26;;;;;;;2.20;2.10;;;25.60;20.70;;;;;;5031864;28;20382;-76
2022/08/01 11:41:24;;;;;;;2.42;2.25;;;26.20;19.70;;;;;;5031203;28;20486;-76
2022/08/01 11:44:04;;;;;;;2.60;2.40;;;26.70;19.10;;;;;;5018824;28;20404;-76
2022/08/01 11:46:51;;;;;;;3.20;1.90;;;26.80;18.00;;;;;;5016710;28;20444;-76
2022/08/01 11:49:28;;;;;;;2.50;1.80;;;26.40;17.20;;;;;;5023328;28;20865;-76
2022/08/01 11:52:23;;;;;;;2.85;1.98;;;26.10;18.40;;;;;;5031505;28;20410;-76
2022/08/01 11:54:54;;;;;;;2.40;1.70;;;26.00;18.10;;;;;;5031809;28;20391;-75
2022/08/01 11:57:21;;;;;;;3.80;2.65;;;26.30;17.10;;;;;;5031863;28;20921;-75
2022/08/01 11:59:57;;;;;;;5.20;2.80;;;26.40;19.70;;;;;;5040793;28;20458;-76
2022/08/01 12:02:28;;;;;;;7.00;2.78;;;26.10;21.30;;;;;;5016506;28;20439;-77
2022/08/01 12:05:03;;;;;;;5.10;3.08;;;25.90;22.90;;;;;;5012285;28;20782;-76
2022/08/01 12:07:31;;;;;;;5.72;2.72;;;25.50;24.40;;;;;;5029769;28;20482;-77
2022/08/01 12:10:04;;;;;;;3.93;2.93;;;25.30;24.80;;;;;;5031163;28;20466;-77
2022/08/01 12:12:31;;;;;;;4.25;3.15;;;25.70;24.60;;;;;;5012527;28;20384;-77
2022/08/01 12:14:59;;;;;;;4.38;2.95;;;26.00;23.90;;;;;;5023617;28;20397;-77
2022/08/01 12:17:31;;;;;;;2.65;2.45;;;26.20;22.80;;;;;;5014758;28;20483;-75
2022/08/01 12:19:57;;;;;;;4.72;2.42;;;26.10;23.70;;;;;;5021304;28;20395;-76
2022/08/01 12:22:23;;;;;;;4.03;2.60;;;26.50;22.00;;;;;;5032114;28;20436;-76
2022/08/01 12:24:49;;;;;;;6.13;2.30;;;27.00;19.30;;;;;;5031165;28;20401;-76
2022/08/01 12:27:28;;;;;;;2.80;1.90;;;27.00;18.10;;;;;;5017675;28;20797;-76
2022/08/01 12:29:54;;;;;;;2.00;1.90;;;26.60;18.40;;;;;;5012448;28;20475;-76
2022/08/01 12:32:24;;;;;;;2.80;1.90;;;26.40;18.60;;;;;;5027089;28;20405;-76
2022/08/01 12:34:51;;;;;;;2.55;2.28;;;26.60;19.20;;;;;;5029886;28;20474;-76
2022/08/01 12:37:18;;;;;;;2.22;2.03;;;26.80;18.60;;;;;;5014570;28;20508;-76
2022/08/01 12:39:44;;;;;;;4.90;2.20;;;27.00;17.50;;;;;;5011589;28;20389;-77
2022/08/01 12:42:10;;;;;;;4.60;1.90;;;27.00;17.10;;;;;;5015884;28;20396;-76
2022/08/01 12:44:37;;;;;;;4.60;1.90;;;26.50;18.00;;;;;;5016171;28;20391;-76
2022/08/01 12:47:05;;;;;;;3.07;2.17;;;26.70;19.10;;;;;;5024819;28;21003;-76
2022/08/01 12:49:32;;;;;;;2.58;2.10;;;26.90;19.60;;;;;;5026313;28;20422;-76
2022/08/01 12:51:57;;;;;;;3.90;2.10;;;26.90;19.10;;;;;;5011524;28;20468;-75
2022/08/01 12:54:25;;;;;;;2.00;1.90;;;27.30;18.10;;;;;;5011010;28;20531;-76
2022/08/01 12:56:53;;;;;;;2.28;1.83;;;27.30;17.50;;;;;;5017308;28;20413;-76